KFZY

Oswego County Airport

Fulton, New York, USA
METAR KFZY 221954Z AUTO 00000KT 10SM SCT036 OVC046 07/02 A3007 RMK AO2 SLP185 T00670022
Observed Flight Rules
Oct-22 @ 19:54 UTC (55 minutes ago) Visual Flight Rules
Visibility Clouds
10 miles
  • Scattered at 3,600' AGL
  • Overcast at 4,600' AGL
Temperatures Readings
Current 7°C / 45°F
Dewpoint 2°C / 36°F
Humidity 71%
Altimeter 30.07" Hg
Pressure 1018.5 hPa
Elevation 138
METAR KFZY 221954Z AUTO 00000KT 10SM SCT036 OVC046 07/02 A3007 RMK AO2 SLP185 T00670022
Observed Flight Rules
Oct-22 @ 19:54 UTC
(55 minutes ago)
VFR
Clouds
  • Scattered at 3,600' AGL
  • Overcast at 4,600' AGL
Temperature Dewpoint
7°C / 45°F 2°C / 36°F
Humidity Altimeter Pressure
71% 30.07" Hg 1018.5 hPa